Time;durP1;ratioP1;P1;durP2;ratioP2;P2;SDS_P1;SDS_P2;PMS_P1;PMS_P2;Temp;Humidity;BMP_temperature;BMP_pressure;BME280_temperature;BME280_humidity;BME280_pressure;Samples;Min_cycle;Max_cycle;Signal;HPM_P1;HPM_P2
2022/05/23 00:01:46;;;;;;;18.75;11.48;;;;;;;19.91;63.54;100392.91;5111968;28;20043;-66
2022/05/23 00:04:13;;;;;;;22.05;14.65;;;;;;;20.06;63.55;100411.28;5103096;27;20130;-67
2022/05/23 00:06:40;;;;;;;21.95;11.60;;;;;;;20.03;63.42;100403.47;5112316;28;20044;-67
2022/05/23 00:09:07;;;;;;;18.73;11.05;;;;;;;20.00;63.36;100396.50;5107993;28;20123;-67
2022/05/23 00:11:34;;;;;;;19.58;11.88;;;;;;;19.91;63.39;100387.25;5099529;28;20470;-67
2022/05/23 00:14:01;;;;;;;19.58;11.30;;;;;;;19.91;63.51;100384.41;5098643;28;20123;-67
2022/05/23 00:16:36;;;;;;;15.65;10.55;;;;;;;19.99;63.54;100394.81;5099368;28;20127;-66
2022/05/23 00:19:03;;;;;;;21.65;10.93;;;;;;;19.94;63.64;100383.72;5095961;28;20055;-66
2022/05/23 00:21:30;;;;;;;27.63;11.40;;;;;;;19.83;63.90;100386.16;5105395;27;20079;-67
2022/05/23 00:23:57;;;;;;;15.02;10.48;;;;;;;19.88;63.95;100391.59;5095676;28;20051;-69
2022/05/23 00:26:24;;;;;;;14.65;10.45;;;;;;;19.73;63.70;100365.91;5100791;28;20529;-68
2022/05/23 00:28:51;;;;;;;24.85;10.60;;;;;;;19.87;63.91;100397.63;5115791;28;20122;-68
2022/05/23 00:31:17;;;;;;;21.17;10.15;;;;;;;19.61;63.78;100360.97;5112124;28;20118;-68
2022/05/23 00:36:32;;;;;;;21.50;12.00;;;;;;;19.79;63.87;100387.19;5112458;28;20055;-67
2022/05/23 00:38:59;;;;;;;19.88;9.88;;;;;;;19.49;63.87;100344.75;5112059;27;21314;-69
2022/05/23 00:44:31;;;;;;;20.20;10.95;;;;;;;19.79;64.11;100387.19;5108280;27;20517;-68
2022/05/23 00:47:15;;;;;;;18.85;10.25;;;;;;;19.72;63.97;100379.22;5107919;28;20536;-68
2022/05/23 00:49:42;;;;;;;15.55;9.98;;;;;;;19.74;63.85;100395.91;5111976;27;20122;-67
2022/05/23 00:52:23;;;;;;;12.40;9.32;;;;;;;19.63;63.72;100370.00;5112409;28;20047;-67
2022/05/23 00:54:53;;;;;;;12.00;9.32;;;;;;;19.74;63.92;100387.41;5100491;28;20087;-68
2022/05/23 00:57:25;;;;;;;10.88;8.98;;;;;;;19.61;64.06;100367.47;5102343;28;20130;-68
2022/05/23 00:59:52;;;;;;;9.98;8.60;;;;;;;19.69;63.99;100373.44;5112317;28;20131;-68
2022/05/23 01:02:20;;;;;;;17.52;9.55;;;;;;;19.57;64.03;100365.69;5112153;28;20135;-68
2022/05/23 01:04:48;;;;;;;13.05;8.77;;;;;;;19.63;63.96;100368.00;5113438;28;20484;-66
2022/05/23 01:07:15;;;;;;;13.93;8.48;;;;;;;19.62;64.01;100354.97;5106369;28;20117;-67
2022/05/23 01:09:42;;;;;;;13.50;9.00;;;;;;;19.65;63.99;100362.78;5113200;27;20477;-68
2022/05/23 01:12:10;;;;;;;11.82;8.18;;;;;;;19.63;63.94;100359.50;5107737;28;20047;-67
2022/05/23 01:15:05;;;;;;;14.10;8.93;;;;;;;19.52;64.10;100360.22;5105474;28;20134;-67
2022/05/23 01:17:32;;;;;;;19.10;8.90;;;;;;;19.40;63.82;100333.50;5103674;27;20143;-68
2022/05/23 01:19:59;;;;;;;14.00;8.43;;;;;;;19.43;63.77;100343.31;5112353;28;20490;-68
2022/05/23 01:23:03;;;;;;;13.85;8.10;;;;;;;19.46;63.86;100348.28;5113946;27;20130;-68
2022/05/23 01:25:32;;;;;;;9.43;8.05;;;;;;;19.20;63.64;100294.69;5111109;28;20138;-67
2022/05/23 01:27:59;;;;;;;8.43;7.63;;;;;;;19.42;63.95;100336.00;5111655;28;20185;-67
2022/05/23 01:30:27;;;;;;;8.70;8.02;;;;;;;19.43;63.72;100340.47;5111456;28;20086;-67
2022/05/23 01:32:53;;;;;;;9.93;8.30;;;;;;;19.41;63.48;100334.31;5099175;28;20122;-67
2022/05/23 01:35:20;;;;;;;12.77;7.88;;;;;;;19.49;63.26;100353.25;5104004;27;20083;-67
2022/05/23 01:37:47;;;;;;;11.80;7.68;;;;;;;19.49;63.34;100353.25;5098598;27;20081;-67
2022/05/23 01:40:16;;;;;;;12.50;7.63;;;;;;;19.48;62.89;100334.59;5112181;28;20126;-67
2022/05/23 01:42:44;;;;;;;11.88;7.43;;;;;;;19.49;63.29;100327.78;5107170;27;20043;-68
2022/05/23 01:45:13;;;;;;;8.27;7.50;;;;;;;19.44;63.02;100322.28;5110512;28;20048;-67
2022/05/23 01:47:41;;;;;;;10.23;7.63;;;;;;;19.45;63.05;100323.94;5112551;28;20122;-68
2022/05/23 01:50:08;;;;;;;12.73;7.88;;;;;;;19.51;62.79;100333.91;5112914;27;20082;-68
2022/05/23 01:52:36;;;;;;;9.25;7.15;;;;;;;19.56;62.70;100345.03;5111630;27;20465;-68
2022/05/23 01:55:03;;;;;;;10.55;7.65;;;;;;;19.52;62.78;100337.56;5110988;27;20135;-67
2022/05/23 01:57:32;;;;;;;8.57;7.85;;;;;;;19.59;62.55;100352.84;5113094;27;20138;-67
2022/05/23 02:02:47;;;;;;;12.80;7.40;;;;;;;19.56;62.48;100358.38;5110939;27;20134;-67
2022/05/23 02:05:15;;;;;;;8.18;7.35;;;;;;;19.57;62.28;100348.69;5107127;28;20079;-67
2022/05/23 02:07:42;;;;;;;13.82;7.78;;;;;;;19.50;62.30;100337.09;5112790;27;20272;-67
2022/05/23 02:10:11;;;;;;;10.05;7.60;;;;;;;19.50;62.30;100343.56;5109237;27;20518;-67
2022/05/23 02:12:38;;;;;;;8.68;7.70;;;;;;;19.45;61.98;100343.78;5100120;28;20134;-66
2022/05/23 02:15:06;;;;;;;11.68;7.70;;;;;;;19.41;61.87;100339.97;5105591;28;20477;-67
2022/05/23 02:17:33;;;;;;;7.40;6.70;;;;;;;19.45;61.72;100346.59;5110328;27;20135;-67
2022/05/23 02:20:00;;;;;;;7.80;7.20;;;;;;;19.16;61.94;100293.72;5111716;28;20097;-68
2022/05/23 02:22:27;;;;;;;8.98;8.07;;;;;;;19.29;61.66;100311.63;5119513;27;20532;-68
2022/05/23 02:24:54;;;;;;;9.52;7.38;;;;;;;19.43;61.58;100343.31;5113844;27;20130;-68
2022/05/23 02:27:20;;;;;;;9.35;8.30;;;;;;;19.42;61.63;100341.66;5112768;28;20131;-68
2022/05/23 02:29:47;;;;;;;16.80;7.75;;;;;;;19.34;61.71;100345.38;5112671;28;20086;-68
2022/05/23 02:32:14;;;;;;;8.93;8.05;;;;;;;18.37;61.61;100207.69;5111871;28;20130;-68
2022/05/23 02:34:41;;;;;;;10.98;7.85;;;;;;;18.99;61.21;100294.66;5108238;28;20035;-68
2022/05/23 02:37:09;;;;;;;8.73;7.53;;;;;;;19.30;61.55;100344.41;5106877;28;20484;-67
2022/05/23 02:39:36;;;;;;;8.05;7.43;;;;;;;19.40;61.26;100355.31;5108081;28;20210;-67
2022/05/23 02:42:03;;;;;;;8.63;7.28;;;;;;;19.27;61.27;100339.44;5108840;28;20135;-67
2022/05/23 02:44:30;;;;;;;8.07;7.30;;;;;;;19.31;61.35;100346.06;5111688;28;20136;-67
2022/05/23 02:46:57;;;;;;;11.35;7.75;;;;;;;19.15;61.13;100326.03;5109909;28;20131;-67
2022/05/23 02:49:23;;;;;;;9.35;7.63;;;;;;;19.10;61.53;100346.88;5111949;27;20086;-67
2022/05/23 02:51:50;;;;;;;9.95;8.43;;;;;;;19.16;61.35;100353.16;5105904;28;20056;-65
2022/05/23 02:54:17;;;;;;;9.23;7.57;;;;;;;19.21;61.49;100350.13;5105803;28;20466;-66
2022/05/23 02:56:44;;;;;;;16.65;7.45;;;;;;;19.21;61.12;100343.63;5108597;28;20095;-66
2022/05/23 02:59:11;;;;;;;20.35;8.38;;;;;;;19.22;61.06;100343.31;5111439;28;20472;-65
2022/05/23 03:03:01;;;;;;;8.20;7.47;;;;;;;19.14;61.23;100347.84;5104787;28;20139;-65
2022/05/23 03:04:25;;;;;;;7.70;6.95;;;;;;;19.14;61.28;100349.84;5092303;28;20048;-68
2022/05/23 03:06:52;;;;;;;7.55;7.00;;;;;;;19.08;61.24;100337.91;5102296;28;20482;-70
2022/05/23 03:09:19;;;;;;;9.00;7.63;;;;;;;19.03;60.97;100332.44;5111126;28;20147;-71
2022/05/23 03:11:48;;;;;;;8.10;7.30;;;;;;;19.00;61.01;100323.78;5108253;28;20138;-72
2022/05/23 03:14:15;;;;;;;7.90;7.20;;;;;;;19.00;61.26;100323.78;5106891;28;20128;-72
2022/05/23 03:16:41;;;;;;;12.93;7.32;;;;;;;18.99;60.98;100324.97;5111691;28;20127;-68
2022/05/23 03:19:08;;;;;;;12.30;7.63;;;;;;;18.98;60.96;100310.00;5109690;28;20498;-69
2022/05/23 03:27:06;;;;;;;7.75;7.00;;;;;;;19.12;61.05;100332.38;5108930;28;20130;-67
2022/05/23 03:29:33;;;;;;;10.95;7.80;;;;;;;18.94;61.16;100309.03;5112908;28;20102;-66
2022/05/23 03:32:00;;;;;;;10.18;7.20;;;;;;;18.85;61.09;100288.44;5111711;28;20134;-67
2022/05/23 03:34:27;;;;;;;10.02;6.95;;;;;;;19.05;60.85;100318.78;5100359;28;20477;-67
2022/05/23 03:36:53;;;;;;;10.40;7.18;;;;;;;18.96;60.91;100298.19;5096185;28;20570;-69
2022/05/23 03:39:20;;;;;;;10.23;7.05;;;;;;;19.03;60.66;100309.78;5111231;28;20589;-67
2022/05/23 03:41:52;;;;;;;12.68;7.63;;;;;;;19.06;60.69;100297.78;5108006;28;20071;-67
2022/05/23 03:44:18;;;;;;;8.45;7.00;;;;;;;18.98;60.55;100292.19;5112721;28;20135;-67
2022/05/23 03:46:45;;;;;;;10.48;8.15;;;;;;;18.70;60.46;100244.59;5110535;28;20048;-69
2022/05/23 03:49:13;;;;;;;8.88;7.35;;;;;;;18.98;60.25;100292.19;5112173;28;20174;-67
2022/05/23 03:51:39;;;;;;;8.40;7.45;;;;;;;18.83;60.36;100266.13;5116215;28;20462;-67
2022/05/23 03:54:07;;;;;;;10.05;6.82;;;;;;;18.85;60.58;100271.47;5109663;28;20131;-68
2022/05/23 03:56:34;;;;;;;10.65;6.97;;;;;;;18.98;60.36;100292.19;5105993;27;20057;-68
2022/05/23 03:59:01;;;;;;;7.13;6.68;;;;;;;18.81;60.19;100279.00;5112365;28;20502;-67
2022/05/23 04:01:30;;;;;;;8.40;7.03;;;;;;;18.87;60.18;100288.91;5105246;27;20078;-68
2022/05/23 04:03:58;;;;;;;8.18;7.45;;;;;;;18.74;60.04;100276.72;5105633;28;20044;-68
2022/05/23 04:06:26;;;;;;;8.73;7.85;;;;;;;18.72;60.30;100279.03;5106030;28;20070;-68
2022/05/23 04:08:53;;;;;;;7.70;7.10;;;;;;;18.85;60.17;100294.09;5105882;28;20106;-69
2022/05/23 04:11:20;;;;;;;7.53;6.82;;;;;;;18.79;60.23;100284.16;5103363;28;20044;-69
2022/05/23 04:13:50;;;;;;;7.93;7.22;;;;;;;18.65;60.27;100261.75;5109122;28;20138;-67
2022/05/23 04:16:18;;;;;;;8.05;7.38;;;;;;;18.64;60.17;100251.63;5114166;28;20517;-69
2022/05/23 04:18:45;;;;;;;9.27;8.38;;;;;;;18.75;60.22;100277.53;5114003;28;20048;-68
2022/05/23 04:21:11;;;;;;;8.70;8.10;;;;;;;18.66;60.00;100274.72;5109651;28;20131;-69
2022/05/23 04:23:39;;;;;;;10.98;8.80;;;;;;;18.59;60.48;100265.94;5107884;28;20048;-69
2022/05/23 04:26:07;;;;;;;8.55;7.68;;;;;;;18.63;60.58;100292.34;5100293;28;20054;-70
2022/05/23 04:28:35;;;;;;;9.35;8.20;;;;;;;18.62;60.51;100285.88;5095669;28;20502;-68
2022/05/23 04:31:03;;;;;;;11.55;9.25;;;;;;;18.60;60.50;100281.75;5103557;28;20067;-68
2022/05/23 04:36:15;;;;;;;8.98;8.27;;;;;;;18.52;60.67;100255.16;5109333;28;20560;-68
2022/05/23 04:38:43;;;;;;;8.70;7.90;;;;;;;18.59;60.25;100246.13;5116087;28;20100;-69
2022/05/23 04:41:10;;;;;;;10.27;7.82;;;;;;;18.59;60.78;100252.63;5113183;28;20455;-68
2022/05/23 04:43:37;;;;;;;8.50;7.72;;;;;;;18.65;60.42;100262.56;5109166;28;20123;-68
2022/05/23 04:46:03;;;;;;;9.02;8.15;;;;;;;18.58;60.40;100245.31;5106036;28;20082;-67
2022/05/23 04:51:16;;;;;;;8.40;7.70;;;;;;;18.57;60.19;100260.63;5114656;28;20134;-67
2022/05/23 04:53:42;;;;;;;10.30;7.53;;;;;;;18.63;60.63;100266.91;5115619;28;20470;-68
2022/05/23 04:56:09;;;;;;;9.13;8.43;;;;;;;18.49;60.25;100258.66;5109145;28;20094;-68
2022/05/23 04:58:36;;;;;;;8.77;7.97;;;;;;;18.54;60.38;100261.31;5094775;28;20062;-68
2022/05/23 05:01:04;;;;;;;9.00;8.18;;;;;;;18.57;60.52;100254.16;5133249;27;20151;-68
2022/05/23 05:03:31;;;;;;;9.13;8.18;;;;;;;18.51;60.18;100259.16;5115206;28;20047;-68
2022/05/23 05:05:58;;;;;;;9.85;7.75;;;;;;;18.52;60.07;100258.00;5103778;28;20040;-68
2022/05/23 05:08:24;;;;;;;9.75;7.85;;;;;;;18.53;60.04;100270.97;5106011;28;20581;-68
2022/05/23 05:10:53;;;;;;;10.63;7.95;;;;;;;18.47;60.02;100261.84;5113068;28;20086;-67
2022/05/23 05:13:20;;;;;;;8.48;7.82;;;;;;;18.48;60.47;100260.66;5100652;27;20586;-68
2022/05/23 05:15:47;;;;;;;8.85;8.05;;;;;;;18.39;60.50;100247.75;5107394;28;20130;-67
2022/05/23 05:18:13;;;;;;;8.73;8.07;;;;;;;18.42;60.63;100264.03;5114549;28;20143;-67
2022/05/23 05:20:40;;;;;;;9.02;8.25;;;;;;;18.34;60.49;100259.25;5114515;28;20086;-67
2022/05/23 05:23:07;;;;;;;8.63;7.80;;;;;;;18.44;60.55;100273.84;5108674;28;20142;-67
2022/05/23 05:25:34;;;;;;;9.13;8.25;;;;;;;18.43;60.75;100279.84;5099088;28;20068;-66
2022/05/23 05:28:01;;;;;;;8.52;7.70;;;;;;;18.43;60.59;100277.84;5113957;28;20079;-67
2022/05/23 05:30:28;;;;;;;8.77;7.93;;;;;;;18.47;60.84;100283.66;5114375;27;20129;-69
2022/05/23 05:33:04;;;;;;;8.95;8.30;;;;;;;18.47;60.70;100284.47;5110771;28;20547;-66
2022/05/23 05:35:36;;;;;;;8.48;6.63;;;;;;;18.41;60.84;100268.03;5116805;28;20086;-68
2022/05/23 05:38:13;;;;;;;7.35;6.63;;;;;;;18.55;60.43;100279.09;5114775;28;20079;-69
2022/05/23 05:40:43;;;;;;;9.20;6.82;;;;;;;18.59;60.73;100280.91;5112417;28;20122;-68
2022/05/23 05:43:21;;;;;;;9.15;7.00;;;;;;;18.62;60.73;100276.56;5112304;28;20079;-68
2022/05/23 05:45:53;;;;;;;10.68;6.32;;;;;;;18.57;60.59;100271.94;5108241;28;20087;-68
2022/05/23 05:48:20;;;;;;;7.25;5.97;;;;;;;18.67;60.85;100288.53;5110333;28;20052;-67
2022/05/23 05:50:49;;;;;;;8.50;7.00;;;;;;;18.62;60.88;100268.91;5114371;28;20130;-67
2022/05/23 05:53:25;;;;;;;7.90;7.20;;;;;;;18.72;60.78;100278.22;5104435;28;20158;-67
2022/05/23 05:55:53;;;;;;;8.63;7.22;;;;;;;18.72;60.95;100279.03;5105001;28;20080;-69
2022/05/23 05:58:20;;;;;;;6.50;6.10;;;;;;;18.81;61.05;100290.31;5104762;28;20055;-68
2022/05/23 06:00:47;;;;;;;8.90;6.75;;;;;;;18.85;60.75;100283.63;5110311;28;20184;-69
2022/05/23 06:03:14;;;;;;;8.40;6.90;;;;;;;18.89;60.73;100283.75;5104685;28;20130;-70
2022/05/23 06:11:26;;;;;;;8.23;6.90;;;;;;;19.06;60.75;100263.81;5106071;27;20061;-68
2022/05/23 06:13:59;;;;;;;6.60;6.10;;;;;;;19.19;60.59;100276.03;5093804;28;20661;-68
2022/05/23 06:16:29;;;;;;;7.68;6.60;;;;;;;19.28;60.86;100282.47;5109713;28;20100;-68
2022/05/23 06:18:56;;;;;;;7.70;6.25;;;;;;;19.35;60.66;100291.25;5113021;27;20043;-68
2022/05/23 06:21:24;;;;;;;10.63;6.88;;;;;;;19.43;60.51;100286.66;5109525;27;20475;-70
2022/05/23 06:23:52;;;;;;;7.10;6.50;;;;;;;19.45;60.39;100295.63;5111764;28;20086;-69
2022/05/23 06:26:21;;;;;;;9.65;6.95;;;;;;;19.40;60.09;100276.84;5109476;28;20118;-68
2022/05/23 06:28:51;;;;;;;7.07;6.50;;;;;;;19.48;60.13;100288.44;5111314;28;20134;-68
2022/05/23 06:31:19;;;;;;;9.02;7.30;;;;;;;19.45;59.83;100284.31;5095153;28;20637;-69
2022/05/23 06:33:47;;;;;;;13.40;7.30;;;;;;;19.56;59.60;100288.38;5108406;28;20044;-67
2022/05/23 06:36:15;;;;;;;7.97;7.30;;;;;;;19.55;59.28;100291.53;5109637;27;20131;-67
2022/05/23 06:38:43;;;;;;;12.20;8.77;;;;;;;19.44;59.34;100271.31;5108990;28;20083;-68
2022/05/23 06:41:11;;;;;;;7.95;7.03;;;;;;;19.63;59.08;100302.84;5100350;28;20131;-68
2022/05/23 06:43:39;;;;;;;8.00;7.22;;;;;;;19.65;59.04;100282.66;5103119;28;20083;-68
2022/05/23 06:46:07;;;;;;;10.50;9.63;;;;;;;19.71;58.73;100286.94;5104934;27;20139;-67
2022/05/23 06:48:34;;;;;;;7.65;6.80;;;;;;;19.73;58.61;100289.44;5103916;27;20054;-67
2022/05/23 06:51:02;;;;;;;7.70;7.20;;;;;;;19.71;58.43;100286.09;5101881;28;20075;-67
2022/05/23 06:53:30;;;;;;;9.25;7.25;;;;;;;19.76;58.17;100294.38;5110278;28;20109;-67
2022/05/23 06:55:57;;;;;;;9.38;8.77;;;;;;;19.68;57.88;100286.78;5098027;28;20048;-68
2022/05/23 06:58:24;;;;;;;12.20;7.50;;;;;;;19.85;58.02;100300.78;5108203;28;20055;-69
2022/05/23 07:00:52;;;;;;;9.90;7.13;;;;;;;19.89;57.71;100296.88;5144377;27;20418;-69
2022/05/23 07:03:20;;;;;;;7.45;6.82;;;;;;;19.66;57.31;100258.84;5108070;28;20051;-69
2022/05/23 07:14:04;;;;;;;8.88;7.07;;;;;;;19.85;56.85;100258.28;5125546;28;20127;-69
2022/05/23 07:16:32;;;;;;;9.52;8.85;;;;;;;20.15;56.74;100304.28;5122817;28;20051;-69
2022/05/23 07:18:59;;;;;;;9.95;9.10;;;;;;;20.11;56.96;100298.50;5133444;27;20049;-69
2022/05/23 07:21:26;;;;;;;8.88;8.02;;;;;;;20.25;56.63;100308.69;5113292;28;20468;-69
2022/05/23 07:23:54;;;;;;;7.72;7.00;;;;;;;20.18;56.57;100275.25;5110584;28;20075;-70
2022/05/23 07:26:21;;;;;;;9.20;6.80;;;;;;;20.28;56.33;100274.78;5108108;28;20131;-67
2022/05/23 07:28:50;;;;;;;8.32;6.97;;;;;;;20.46;56.12;100281.06;5110393;28;20048;-69
2022/05/23 07:31:17;;;;;;;9.40;6.90;;;;;;;20.64;56.15;100300.69;5109728;28;20118;-70
2022/05/23 07:33:45;;;;;;;7.72;6.80;;;;;;;20.70;55.99;100305.78;5107487;27;20052;-69
2022/05/23 07:36:13;;;;;;;9.48;7.55;;;;;;;20.81;56.07;100301.28;5109879;27;20999;-69
2022/05/23 07:38:40;;;;;;;8.05;7.25;;;;;;;20.84;55.26;100285.56;5111045;27;20127;-69
2022/05/23 07:41:09;;;;;;;10.27;9.07;;;;;;;20.94;55.38;100299.25;5109753;27;20106;-71
2022/05/23 07:43:39;;;;;;;8.60;7.80;;;;;;;20.99;55.06;100284.84;5111858;28;20075;-70
2022/05/23 07:46:15;;;;;;;8.07;6.72;;;;;;;21.22;55.26;100284.31;5111218;27;20341;-70
2022/05/23 07:48:48;;;;;;;9.40;8.55;;;;;;;21.35;54.98;100273.78;5115240;28;20097;-70
2022/05/23 07:51:15;;;;;;;7.88;7.28;;;;;;;;;;5111887;28;20216;-70
2022/05/23 08:02:01;;;;;;;7.55;6.80;;;;;;;21.71;54.02;100272.81;5112045;27;20051;-69
2022/05/23 08:04:28;;;;;;;7.95;7.05;;;;;;;21.84;53.78;100299.13;5112171;27;20134;-70
2022/05/23 08:06:55;;;;;;;9.20;7.53;;;;;;;21.93;53.56;100292.09;5114606;28;20142;-70
2022/05/23 08:09:22;;;;;;;10.05;7.20;;;;;;;22.01;52.93;100293.09;5113408;28;20082;-69
2022/05/23 08:11:53;;;;;;;7.30;6.60;;;;;;;21.88;52.52;100281.00;5113548;27;20093;-69
2022/05/23 08:14:21;;;;;;;10.38;9.27;;;;;;;22.12;52.53;100302.78;5114792;27;20478;-69
2022/05/23 08:16:49;;;;;;;7.60;7.00;;;;;;;22.21;52.44;100305.47;5111336;27;20058;-70
2022/05/23 08:19:16;;;;;;;7.30;6.63;;;;;;;22.09;52.46;100280.75;5115006;28;20051;-69
2022/05/23 08:21:51;;;;;;;8.85;7.32;;;;;;;22.16;51.97;100309.41;5111843;28;20138;-70
2022/05/23 08:24:18;;;;;;;9.15;8.55;;;;;;;21.97;52.04;100295.84;5111078;27;20430;-71
2022/05/23 08:26:45;;;;;;;7.20;6.60;;;;;;;21.94;51.80;100307.94;5114022;28;20082;-70
2022/05/23 08:29:12;;;;;;;7.28;6.07;;;;;;;21.99;51.60;100313.38;5109721;28;20071;-69
2022/05/23 08:31:46;;;;;;;7.78;7.18;;;;;;;21.95;51.11;100292.56;5112826;28;20052;-69
2022/05/23 08:34:14;;;;;;;6.82;6.43;;;;;;;21.94;51.19;100305.09;5114428;27;20064;-69
2022/05/23 08:36:42;;;;;;;7.07;6.47;;;;;;;22.09;51.24;100314.88;5109044;28;20485;-69
2022/05/23 08:39:10;;;;;;;7.57;6.72;;;;;;;21.92;51.73;100304.66;5111193;27;20044;-69
2022/05/23 08:41:40;;;;;;;7.25;6.65;;;;;;;21.84;51.42;100314.16;5110757;27;20130;-69
2022/05/23 08:44:16;;;;;;;7.72;7.13;;;;;;;21.84;51.60;100316.19;5113188;28;20129;-69
2022/05/23 08:47:01;;;;;;;8.65;8.00;;;;;;;21.82;51.56;100316.56;5110555;28;20142;-69
2022/05/23 08:49:34;;;;;;;8.38;7.20;;;;;;;21.85;51.37;100315.84;5111926;27;20139;-70
2022/05/23 08:52:34;;;;;;;7.70;6.55;;;;;;;21.83;51.79;100318.19;5110283;27;20920;-69
2022/05/23 08:55:14;;;;;;;7.15;6.75;;;;;;;21.76;51.73;100320.84;5109414;28;20456;-69
2022/05/23 08:58:00;;;;;;;8.30;7.80;;;;;;;21.59;51.83;100321.16;5107615;27;20058;-70
2022/05/23 09:00:35;;;;;;;7.25;6.85;;;;;;;21.60;52.35;100323.63;5110533;28;20568;-70
2022/05/23 09:03:09;;;;;;;6.55;6.10;;;;;;;21.58;52.35;100322.34;5110182;28;20577;-70
2022/05/23 09:05:41;;;;;;;6.80;6.40;;;;;;;21.37;52.11;100300.63;5109040;27;20052;-70
2022/05/23 09:08:32;;;;;;;7.28;6.88;;;;;;;21.40;52.24;100287.69;5111956;27;20391;-69
2022/05/23 09:11:08;;;;;;;9.27;8.63;;;;;;;21.71;52.01;100310.56;5103497;27;20074;-69
2022/05/23 09:13:40;;;;;;;7.10;6.60;;;;;;;21.95;52.26;100315.31;5111034;27;20122;-69
2022/05/23 09:16:10;;;;;;;7.50;7.10;;;;;;;22.19;51.94;100328.59;5111232;27;20047;-69
2022/05/23 09:18:44;;;;;;;7.40;6.90;;;;;;;22.41;51.59;100326.31;5111690;28;20047;-71
2022/05/23 09:21:11;;;;;;;7.53;6.97;;;;;;;22.39;51.30;100312.47;5110090;27;20105;-69
2022/05/23 09:23:45;;;;;;;8.00;7.40;;;;;;;22.40;51.29;100308.41;5111703;28;20054;-70
2022/05/23 09:26:24;;;;;;;7.05;6.55;;;;;;;22.42;51.50;100323.09;5111009;28;20040;-70
2022/05/23 09:28:51;;;;;;;7.60;7.10;;;;;;;22.26;51.58;100308.06;5106404;28;20134;-70
2022/05/23 09:31:26;;;;;;;8.07;7.38;;;;;;;22.30;51.75;100308.16;5109256;27;20490;-70
2022/05/23 09:33:56;;;;;;;8.88;8.23;;;;;;;22.31;51.67;100304.91;5109814;28;20059;-69
2022/05/23 09:36:29;;;;;;;7.45;6.95;;;;;;;22.48;51.00;100321.63;5108267;27;20894;-69
2022/05/23 09:39:01;;;;;;;6.47;6.07;;;;;;;22.38;51.50;100319.34;5111062;27;20477;-70
2022/05/23 09:47:45;;;;;;;6.85;6.55;;;;;;;22.56;50.92;100318.97;5110114;27;20083;-70
2022/05/23 09:50:13;;;;;;;;;;;;;;;22.39;51.68;100323.84;5108495;27;20070;-70
2022/05/23 09:53:01;;;;;;;7.60;7.10;;;;;;;22.25;51.50;100303.53;5110781;27;19942;-70
2022/05/23 09:55:34;;;;;;;9.60;9.20;;;;;;;22.12;51.38;100305.63;5106570;28;20138;-69
2022/05/23 09:58:04;;;;;;;7.15;6.82;;;;;;;21.89;51.54;100296.03;5106485;28;20170;-70
2022/05/23 10:00:35;;;;;;;6.72;6.43;;;;;;;21.90;51.79;100300.53;5106473;27;20250;-69
2022/05/23 10:03:13;;;;;;;7.00;6.60;;;;;;;22.00;51.81;100306.50;5109769;28;20047;-70
2022/05/23 10:05:44;;;;;;;7.45;6.95;;;;;;;22.01;51.76;100299.63;5110134;27;20043;-70
2022/05/23 10:08:12;;;;;;;8.55;7.95;;;;;;;22.12;52.01;100336.91;5108913;27;20075;-68
2022/05/23 10:10:53;;;;;;;7.03;6.68;;;;;;;21.89;52.11;100316.75;5107973;27;20142;-70
2022/05/23 10:13:30;;;;;;;7.55;7.03;;;;;;;21.91;52.48;100333.44;5102758;28;20536;-69
2022/05/23 10:16:15;;;;;;;8.02;7.18;;;;;;;21.52;52.70;100302.69;5109359;28;20070;-70
2022/05/23 10:18:49;;;;;;;10.85;9.82;;;;;;;21.56;53.16;100325.53;5107659;27;20498;-71
2022/05/23 10:21:35;;;;;;;8.63;7.85;;;;;;;21.50;53.55;100324.97;5106563;28;20078;-69
2022/05/23 10:24:17;;;;;;;8.60;8.20;;;;;;;21.46;53.91;100326.84;5110538;28;20051;-69
2022/05/23 10:26:51;;;;;;;9.38;8.88;;;;;;;21.18;54.68;100334.47;5106082;27;20100;-68
2022/05/23 10:29:34;;;;;;;9.07;8.50;;;;;;;20.85;55.56;100332.63;5109636;28;20516;-70
2022/05/23 10:32:10;;;;;;;10.07;9.48;;;;;;;20.54;56.15;100314.16;5106995;27;20079;-70
2022/05/23 10:34:56;;;;;;;10.18;9.68;;;;;;;20.49;56.58;100299.38;5105359;28;20141;-70
2022/05/23 10:37:26;;;;;;;9.88;9.38;;;;;;;20.67;56.83;100317.03;5107892;28;20051;-71
2022/05/23 10:43:03;;;;;;;9.20;8.70;;;;;;;20.54;57.36;100331.19;5109131;28;20093;-70
2022/05/23 10:45:38;;;;;;;11.02;10.52;;;;;;;20.38;56.49;100344.41;5104235;28;20062;-69
2022/05/23 10:48:46;;;;;;;10.27;9.77;;;;;;;19.92;56.52;100340.72;5102349;28;20086;-69
2022/05/23 10:51:29;;;;;;;10.20;9.60;;;;;;;19.59;56.96;100346.34;5104532;28;20036;-69
2022/05/23 10:54:11;;;;;;;11.25;10.55;;;;;;;19.34;57.13;100339.69;5110079;28;20052;-69
2022/05/23 10:57:02;;;;;;;10.75;10.13;;;;;;;19.15;57.82;100355.16;5108436;27;20138;-70
2022/05/23 10:59:53;;;;;;;10.65;9.98;;;;;;;18.91;58.01;100329.53;5108227;28;20055;-69
2022/05/23 11:02:35;;;;;;;10.13;9.45;;;;;;;19.03;58.40;100355.06;5107435;28;20047;-71
2022/05/23 11:05:21;;;;;;;10.77;10.05;;;;;;;19.04;58.62;100353.91;5104195;28;20113;-70
2022/05/23 11:08:08;;;;;;;11.95;11.18;;;;;;;19.04;58.39;100325.63;5107792;28;20257;-70
2022/05/23 11:10:50;;;;;;;11.30;10.70;;;;;;;19.32;58.66;100350.56;5108248;28;20135;-70
2022/05/23 11:13:52;;;;;;;12.55;11.80;;;;;;;19.35;58.47;100344.19;5108056;28;20554;-69
2022/05/23 11:16:33;;;;;;;11.32;10.52;;;;;;;19.50;58.68;100343.56;5105966;28;20127;-69
2022/05/23 11:19:45;;;;;;;10.98;10.18;;;;;;;19.55;58.93;100340.53;5105750;28;20486;-70
2022/05/23 11:22:23;;;;;;;10.10;9.40;;;;;;;19.58;58.61;100347.50;5106016;28;20114;-69
2022/05/23 11:25:25;;;;;;;9.05;8.55;;;;;;;19.69;58.62;100359.25;5108045;28;20443;-70
2022/05/23 11:33:58;;;;;;;10.43;9.70;;;;;;;19.93;58.76;100356.56;5104386;28;20047;-69
2022/05/23 11:39:46;;;;;;;9.63;9.13;;;;;;;20.66;58.42;100352.25;5110143;28;20043;-69
2022/05/23 11:42:24;;;;;;;9.55;9.05;;;;;;;21.03;57.74;100331.19;5106727;28;20037;-69
2022/05/23 11:44:59;;;;;;;9.35;8.65;;;;;;;21.21;57.14;100336.59;5111247;28;20079;-70
2022/05/23 11:47:43;;;;;;;10.55;9.85;;;;;;;21.24;56.63;100316.03;5105001;28;20139;-69
2022/05/23 11:50:18;;;;;;;10.43;9.52;;;;;;;21.32;56.87;100334.91;5112034;28;20440;-70
2022/05/23 11:53:03;;;;;;;8.45;7.85;;;;;;;21.18;56.72;100325.97;5110984;28;20047;-69
2022/05/23 11:55:53;;;;;;;7.97;7.57;;;;;;;21.24;56.67;100330.22;5110829;28;20387;-69
2022/05/23 11:58:39;;;;;;;;;;;;;;;21.06;57.05;100336.16;5110341;28;20055;-70
2022/05/23 12:01:11;;;;;;;8.25;7.75;;;;;;;21.36;56.80;100350.09;5111596;28;19988;-71
2022/05/23 12:03:47;;;;;;;9.27;8.77;;;;;;;21.73;56.50;100342.28;5110153;28;20086;-70
2022/05/23 12:06:23;;;;;;;7.38;6.97;;;;;;;22.11;55.91;100332.38;5110171;28;20457;-69
2022/05/23 12:09:05;;;;;;;7.65;7.05;;;;;;;22.37;55.66;100340.44;5111587;28;20079;-70
2022/05/23 12:11:43;;;;;;;8.80;8.20;;;;;;;22.67;54.81;100340.81;5112465;28;20732;-69
2022/05/23 12:14:33;;;;;;;10.88;10.25;;;;;;;23.04;53.84;100328.31;5115352;28;20052;-71
2022/05/23 12:17:27;;;;;;;9.18;7.85;;;;;;;23.33;53.10;100307.00;5112779;28;20088;-69
2022/05/23 12:20:00;;;;;;;7.93;7.43;;;;;;;23.66;51.86;100317.91;5102931;28;20090;-69
2022/05/23 12:22:32;;;;;;;8.60;7.90;;;;;;;23.65;51.64;100334.16;5114474;28;20122;-70
2022/05/23 12:25:07;;;;;;;7.90;7.30;;;;;;;23.57;50.84;100340.09;5114837;28;20052;-70
2022/05/23 12:27:44;;;;;;;7.28;6.85;;;;;;;23.25;51.01;100305.19;5114768;28;20440;-69
2022/05/23 12:30:21;;;;;;;8.68;8.05;;;;;;;23.34;50.79;100323.72;5114593;28;20047;-70
2022/05/23 12:33:19;;;;;;;9.65;9.13;;;;;;;23.23;50.57;100310.44;5113086;28;20044;-69
2022/05/23 12:36:04;;;;;;;8.50;7.63;;;;;;;23.33;50.00;100330.63;5108961;28;20090;-70
2022/05/23 12:39:01;;;;;;;9.30;8.68;;;;;;;23.50;49.95;100325.69;5114927;28;20082;-70
2022/05/23 12:41:50;;;;;;;8.07;7.60;;;;;;;23.74;49.72;100321.75;5114305;28;20131;-69
2022/05/23 12:44:47;;;;;;;7.78;7.28;;;;;;;23.73;49.15;100318.09;5112827;28;20134;-70